Hauptseite
METAR-TAF:

METAR-TAF

Flughäfen :

Flughafen Chuuk

Weno, Mikronesien

Breite: 07-28N, Länge: 151-51E, Höhe: 3 m

Beobachtung

Neuester Wetterbericht von vor 27 Minuten, um 03:50 UTC
Wind 7 kt aus Nord
Temperatur 32°C
Luftfeuchtigkeit 71%
Luftdruck 1006 hPa
Sichtweite: 24.1 km
Leicht bewölkt in der Höhe von 1400 ft
Aufgelockert bewölkt in der Höhe von 29000 ft

METAR: PTKK 220350Z 01007KT 15SM FEW014 SCT290 32/26 A2972 RMK SLP067 T03220264

Zeit: 14:17 (04:17 UTC)

Prognose

Neuester Wetterbericht von vor 4 Stunden und 46 Minuten, um 23:31 UTC
Gültige Prognose vom 22 um 00 UTC bis 22 um 24 UTC
Wind 8 kt aus Nordost
Sichtweite: 10 km
Leicht bewölkt in der Höhe von 1400 ft
Aufgelockert bewölkt in der Höhe von 5000 ft
Schauer in der Nähe

TAF: PTKK 212331Z 2200/2224 04008KT P6SM VCSH FEW014 SCT050

Wetterbeobachtungen und Prognosen von mehr als 4000 Flughäfen (METAR und TAF Bericht).

Die verfügbaren Stationen werden durch gelbe und rote Markierungen auf der Karte dargestellt.

Führen Sie die Maus auf sie, um den Namen der Station zu sehen.

Darauf klicken, um die Beobachtung von Wetterbeobachtungen und Prognosen zu sehen.

Um die Karte zu ändern : klicken Sie auf den grünen Tasten mit einem schwarzen Kreuz Zum Vergrößern, auf den grünen Button mit einem Gedankenstrich zu verkleinern, oder auf die grünen Pfeile für benachbarte Karten.


METAR-TAF: